Time;durP1;ratioP1;P1;durP2;ratioP2;P2;SDS_P1;SDS_P2;PMS_P1;PMS_P2;Temp;Humidity;BMP_temperature;BMP_pressure;BME280_temperature;BME280_humidity;BME280_pressure;Samples;Min_cycle;Max_cycle;Signal;HPM_P1;HPM_P2
2021/01/26 00:00:38;;;;;;;7.60;5.82;;;0.40;99.90;;;;;;5071755;28;20223;-80
2021/01/26 00:03:05;;;;;;;8.63;7.05;;;0.40;99.90;;;;;;5063817;28;20235;-81
2021/01/26 00:05:32;;;;;;;9.10;7.80;;;0.60;99.90;;;;;;5066693;28;20219;-80
2021/01/26 00:07:59;;;;;;;10.02;7.32;;;0.40;99.90;;;;;;5073819;28;20326;-81
2021/01/26 00:10:25;;;;;;;12.20;7.20;;;0.50;99.90;;;;;;5069845;28;20672;-80
2021/01/26 00:12:51;;;;;;;9.32;7.57;;;0.50;99.90;;;;;;5054945;28;20289;-80
2021/01/26 00:15:18;;;;;;;12.15;8.95;;;0.70;99.90;;;;;;5061035;28;20196;-80
2021/01/26 00:17:44;;;;;;;9.25;7.47;;;0.70;99.90;;;;;;5061316;28;20216;-81
2021/01/26 00:20:13;;;;;;;9.52;7.70;;;0.60;99.90;;;;;;5060262;28;20568;-80
2021/01/26 00:22:40;;;;;;;10.93;9.00;;;0.70;99.90;;;;;;5060502;28;20222;-80
2021/01/26 00:25:09;;;;;;;8.68;7.78;;;0.50;99.90;;;;;;5062268;28;20308;-80
2021/01/26 00:27:35;;;;;;;9.25;7.53;;;0.50;99.90;;;;;;5052763;28;20192;-80
2021/01/26 00:30:02;;;;;;;7.78;6.88;;;0.50;99.90;;;;;;5061817;28;20686;-80
2021/01/26 00:32:29;;;;;;;10.30;7.85;;;0.50;99.90;;;;;;5073346;28;20234;-80
2021/01/26 00:34:55;;;;;;;12.23;7.90;;;0.50;99.90;;;;;;5069325;28;20245;-80
2021/01/26 00:37:21;;;;;;;7.75;6.93;;;0.40;99.90;;;;;;5073076;28;20261;-80
2021/01/26 00:39:49;;;;;;;10.65;7.43;;;0.40;99.90;;;;;;5072449;28;20364;-80
2021/01/26 00:42:15;;;;;;;9.82;6.90;;;0.40;99.90;;;;;;5059341;28;20204;-80
2021/01/26 00:44:41;;;;;;;8.07;7.30;;;0.30;99.90;;;;;;5052613;28;20234;-80
2021/01/26 00:47:08;;;;;;;10.07;8.43;;;0.20;99.90;;;;;;5052873;28;20231;-80
2021/01/26 00:49:34;;;;;;;9.55;8.15;;;0.20;99.90;;;;;;5052965;28;20293;-80
2021/01/26 00:52:00;;;;;;;7.85;7.05;;;0.20;99.90;;;;;;5053517;28;20212;-80
2021/01/26 00:54:27;;;;;;;9.93;8.88;;;0.40;99.90;;;;;;5063516;28;20203;-79
2021/01/26 00:56:54;;;;;;;8.98;7.35;;;0.50;99.90;;;;;;5068878;28;20195;-80
2021/01/26 00:59:20;;;;;;;11.70;7.22;;;0.40;99.90;;;;;;5061379;28;20609;-80
2021/01/26 01:01:47;;;;;;;10.63;7.50;;;0.30;99.90;;;;;;5052691;28;20246;-80
2021/01/26 01:04:14;;;;;;;12.80;8.48;;;0.20;99.90;;;;;;5062300;28;20222;-80
2021/01/26 01:06:40;;;;;;;9.32;7.70;;;0.30;99.90;;;;;;5056205;28;20254;-80
2021/01/26 01:09:06;;;;;;;12.98;9.20;;;0.40;99.90;;;;;;5067920;28;20222;-80
2021/01/26 01:11:33;;;;;;;12.23;8.57;;;0.40;99.90;;;;;;5061715;28;20242;-80
2021/01/26 01:14:00;;;;;;;10.77;8.52;;;0.40;99.90;;;;;;5072965;28;20213;-80
2021/01/26 01:16:27;;;;;;;11.30;8.85;;;0.60;99.90;;;;;;5053517;28;20224;-80
2021/01/26 01:18:53;;;;;;;11.18;9.13;;;0.50;99.90;;;;;;5053176;28;20265;-80
2021/01/26 01:21:19;;;;;;;9.82;7.90;;;0.50;99.90;;;;;;5052570;28;20555;-80
2021/01/26 01:23:46;;;;;;;14.48;9.38;;;0.40;99.90;;;;;;5057898;28;20242;-80
2021/01/26 01:26:12;;;;;;;10.85;9.75;;;0.40;99.90;;;;;;5056112;28;20247;-80
2021/01/26 01:28:38;;;;;;;8.90;7.97;;;0.40;99.90;;;;;;5060077;28;20215;-80
2021/01/26 01:31:06;;;;;;;12.75;8.93;;;0.30;99.60;;;;;;5052821;28;20223;-80
2021/01/26 01:33:32;;;;;;;12.77;8.55;;;0.20;99.90;;;;;;5062192;28;20211;-80
2021/01/26 01:35:58;;;;;;;8.85;6.95;;;0.10;99.50;;;;;;5052394;28;20200;-80
2021/01/26 01:38:25;;;;;;;8.75;7.72;;;-0.10;99.10;;;;;;5051181;28;20661;-79
2021/01/26 01:40:53;;;;;;;9.20;7.20;;;0.00;99.50;;;;;;5067137;28;20211;-80
2021/01/26 01:43:19;;;;;;;10.38;7.40;;;0.10;99.60;;;;;;5053089;28;20619;-80
2021/01/26 01:45:46;;;;;;;11.95;9.23;;;0.10;99.10;;;;;;5071151;28;20273;-79
2021/01/26 01:48:16;;;;;;;9.20;8.23;;;0.10;98.80;;;;;;5068589;28;20210;-80
2021/01/26 01:50:47;;;;;;;9.00;7.05;;;0.00;98.80;;;;;;5057219;28;20247;-80
2021/01/26 01:53:19;;;;;;;11.55;8.52;;;-0.10;99.00;;;;;;5061977;28;20698;-79
2021/01/26 01:55:57;;;;;;;8.35;7.10;;;0.00;98.70;;;;;;5066229;28;20195;-80
2021/01/26 01:58:28;;;;;;;9.40;6.97;;;-0.10;98.60;;;;;;5067744;28;20241;-79
2021/01/26 02:01:01;;;;;;;8.48;6.38;;;-0.10;99.00;;;;;;5069360;28;20214;-80
2021/01/26 02:03:34;;;;;;;9.52;6.93;;;0.00;99.00;;;;;;5058609;28;20632;-79
2021/01/26 02:06:02;;;;;;;7.15;5.90;;;0.00;98.90;;;;;;5070390;28;20219;-80
2021/01/26 02:08:39;;;;;;;8.35;6.35;;;-0.20;98.40;;;;;;5056783;28;20208;-79
2021/01/26 02:11:08;;;;;;;8.88;6.88;;;-0.10;99.10;;;;;;5062748;28;20631;-80
2021/01/26 02:13:35;;;;;;;10.52;7.43;;;0.00;99.00;;;;;;5049795;28;20200;-80
2021/01/26 02:16:05;;;;;;;7.13;6.05;;;0.00;99.10;;;;;;5054906;28;20278;-79
2021/01/26 02:18:46;;;;;;;10.15;7.28;;;-0.10;98.60;;;;;;5060026;28;20206;-79
2021/01/26 02:22:07;;;;;;;7.78;6.03;;;-0.10;98.90;;;;;;5050161;28;20290;-80
2021/01/26 02:25:12;;;;;;;7.35;6.65;;;-0.10;99.00;;;;;;5060949;28;20701;-79
2021/01/26 02:28:10;;;;;;;8.38;6.82;;;-0.10;98.60;;;;;;5055740;28;20238;-80
2021/01/26 02:30:47;;;;;;;10.93;7.75;;;0.00;98.90;;;;;;5059563;28;20204;-80
2021/01/26 02:33:57;;;;;;;9.90;6.78;;;0.10;98.50;;;;;;5050565;28;20290;-80
2021/01/26 02:36:53;;;;;;;8.00;7.10;;;-0.10;97.90;;;;;;5050577;28;20222;-79
2021/01/26 02:39:40;;;;;;;8.32;6.10;;;0.10;98.30;;;;;;5051726;28;20672;-80
2021/01/26 02:42:31;;;;;;;9.57;7.57;;;0.10;98.50;;;;;;5056264;28;20295;-80
2021/01/26 02:45:20;;;;;;;11.13;7.13;;;0.10;98.10;;;;;;5063204;28;20203;-80
2021/01/26 02:48:02;;;;;;;10.38;8.45;;;0.10;98.00;;;;;;5067198;28;20229;-80
2021/01/26 02:50:36;;;;;;;10.85;6.47;;;0.10;97.90;;;;;;5056112;28;20290;-80
2021/01/26 02:53:14;;;;;;;10.85;7.57;;;0.20;98.20;;;;;;5061832;28;20241;-80
2021/01/26 02:55:46;;;;;;;9.57;8.18;;;0.20;97.90;;;;;;5049750;28;20716;-80
2021/01/26 02:58:19;;;;;;;10.95;7.45;;;0.40;98.20;;;;;;5054804;28;20691;-80
2021/01/26 03:00:54;;;;;;;11.25;8.80;;;0.60;98.20;;;;;;5050072;28;20204;-80
2021/01/26 03:03:30;;;;;;;10.10;7.78;;;0.60;97.50;;;;;;5049902;28;20238;-80
2021/01/26 03:06:05;;;;;;;9.48;6.38;;;0.60;97.50;;;;;;5050129;28;20219;-79
2021/01/26 03:08:38;;;;;;;13.75;7.57;;;0.50;97.00;;;;;;5054100;28;20196;-80
2021/01/26 03:11:13;;;;;;;10.23;7.43;;;0.30;97.30;;;;;;5051150;28;20242;-80
2021/01/26 03:13:48;;;;;;;12.60;8.18;;;0.40;97.60;;;;;;5065242;28;20203;-80
2021/01/26 03:16:17;;;;;;;10.20;7.18;;;0.40;97.80;;;;;;5050979;28;20200;-80
2021/01/26 03:18:48;;;;;;;11.18;8.43;;;0.40;97.70;;;;;;5062125;28;20208;-80
2021/01/26 03:21:17;;;;;;;8.90;7.65;;;0.40;98.00;;;;;;5050776;28;20657;-80
2021/01/26 03:23:47;;;;;;;9.95;7.10;;;0.20;97.60;;;;;;5066751;28;20569;-80
2021/01/26 03:26:18;;;;;;;9.73;7.60;;;0.30;98.20;;;;;;5069741;28;20222;-80
2021/01/26 03:28:48;;;;;;;11.60;8.18;;;0.30;97.80;;;;;;5074419;28;20227;-80
2021/01/26 03:31:19;;;;;;;9.60;8.10;;;0.30;98.00;;;;;;5073802;28;20199;-80
2021/01/26 03:33:48;;;;;;;11.25;8.43;;;0.10;97.90;;;;;;5063485;28;20751;-80
2021/01/26 03:36:15;;;;;;;10.18;8.82;;;0.10;98.10;;;;;;5069233;28;20202;-80
2021/01/26 03:38:42;;;;;;;11.98;8.60;;;0.20;98.60;;;;;;5067003;28;20222;-80
2021/01/26 03:41:09;;;;;;;10.10;7.85;;;0.20;98.40;;;;;;5056780;28;20203;-80
2021/01/26 03:43:36;;;;;;;12.30;7.75;;;0.10;98.40;;;;;;5072758;28;20233;-80
2021/01/26 03:46:13;;;;;;;9.15;8.23;;;0.30;98.50;;;;;;5055336;28;20228;-80
2021/01/26 03:48:58;;;;;;;9.27;7.78;;;0.30;98.40;;;;;;5059941;28;20604;-80
2021/01/26 03:51:36;;;;;;;9.95;8.70;;;0.20;98.20;;;;;;5055051;28;20196;-79
2021/01/26 03:54:17;;;;;;;11.65;8.00;;;0.20;98.20;;;;;;5069871;28;20661;-80
2021/01/26 03:57:16;;;;;;;7.70;6.60;;;0.30;98.20;;;;;;5054718;28;20227;-80
2021/01/26 03:59:54;;;;;;;13.93;8.88;;;0.40;98.60;;;;;;5054767;28;20192;-80
2021/01/26 04:02:28;;;;;;;10.50;8.93;;;0.20;98.20;;;;;;5055333;28;20200;-80
2021/01/26 04:05:04;;;;;;;10.05;7.68;;;0.20;98.40;;;;;;5070669;28;20222;-80
2021/01/26 04:07:38;;;;;;;10.00;8.05;;;0.30;98.60;;;;;;5054631;28;20948;-80
2021/01/26 04:10:12;;;;;;;11.68;8.60;;;0.30;98.50;;;;;;5074193;28;20226;-80
2021/01/26 04:12:43;;;;;;;14.05;9.40;;;0.30;98.40;;;;;;5057680;28;20600;-80
2021/01/26 04:15:18;;;;;;;10.77;8.30;;;0.40;98.40;;;;;;5055332;28;20219;-80
2021/01/26 04:17:50;;;;;;;11.95;8.40;;;0.20;98.20;;;;;;5053423;28;20203;-80
2021/01/26 04:20:21;;;;;;;13.05;9.10;;;0.30;98.50;;;;;;5060030;28;20227;-80
2021/01/26 04:22:53;;;;;;;12.60;8.52;;;0.30;98.50;;;;;;5054035;28;20565;-79
2021/01/26 04:25:36;;;;;;;10.55;7.80;;;0.10;98.60;;;;;;5070086;28;20315;-80
2021/01/26 04:28:06;;;;;;;12.35;8.43;;;0.20;99.30;;;;;;5053534;28;20224;-80
2021/01/26 04:30:34;;;;;;;10.60;7.55;;;0.30;99.50;;;;;;5053752;28;20254;-79
2021/01/26 04:33:03;;;;;;;12.73;8.40;;;0.20;99.20;;;;;;5058425;28;20245;-80
2021/01/26 04:35:29;;;;;;;9.30;7.90;;;0.20;99.50;;;;;;5065037;28;20234;-79
2021/01/26 04:37:58;;;;;;;11.90;8.38;;;0.20;99.40;;;;;;5056743;28;20234;-80
2021/01/26 04:40:27;;;;;;;11.65;8.98;;;0.20;99.30;;;;;;5062625;28;20599;-80
2021/01/26 04:42:58;;;;;;;9.10;7.93;;;0.20;99.10;;;;;;5053787;28;20261;-81
2021/01/26 04:45:35;;;;;;;11.18;7.85;;;0.10;99.50;;;;;;5068062;28;20195;-80
2021/01/26 04:48:11;;;;;;;10.88;7.30;;;0.20;99.60;;;;;;5057871;28;20199;-80
2021/01/26 04:50:45;;;;;;;9.85;6.80;;;0.10;99.40;;;;;;5054001;28;20210;-80
2021/01/26 04:53:38;;;;;;;6.90;6.07;;;0.20;99.20;;;;;;5054440;28;20739;-81
2021/01/26 04:56:11;;;;;;;7.55;6.50;;;0.30;99.20;;;;;;5053571;28;20670;-80
2021/01/26 04:58:55;;;;;;;6.32;5.43;;;0.40;98.90;;;;;;5055778;28;20200;-80
2021/01/26 05:01:38;;;;;;;8.65;5.95;;;0.30;98.50;;;;;;5060348;28;20203;-80
2021/01/26 05:04:10;;;;;;;9.48;6.47;;;0.30;98.40;;;;;;5065563;28;20239;-80
2021/01/26 05:06:42;;;;;;;9.25;7.18;;;0.40;98.90;;;;;;5052875;28;20259;-80
2021/01/26 05:09:17;;;;;;;6.22;4.93;;;0.40;98.70;;;;;;5053385;28;20204;-80
2021/01/26 05:11:46;;;;;;;7.82;5.20;;;0.40;98.60;;;;;;5054297;28;20196;-81
2021/01/26 05:14:18;;;;;;;6.38;5.78;;;0.30;99.00;;;;;;5059967;28;20211;-80
2021/01/26 05:16:53;;;;;;;10.07;6.25;;;0.50;98.80;;;;;;5072553;28;20196;-80
2021/01/26 05:19:27;;;;;;;9.38;6.45;;;0.60;98.70;;;;;;5068808;28;20206;-80
2021/01/26 05:22:08;;;;;;;8.75;6.90;;;0.50;98.40;;;;;;5063794;28;20204;-80
2021/01/26 05:24:41;;;;;;;9.88;6.55;;;0.50;98.80;;;;;;5060963;28;20203;-80
2021/01/26 05:27:08;;;;;;;10.25;6.57;;;0.50;98.70;;;;;;5063906;28;20219;-80
2021/01/26 05:29:35;;;;;;;8.30;6.32;;;0.50;98.80;;;;;;5064251;28;20199;-80
2021/01/26 05:32:03;;;;;;;7.95;6.38;;;0.50;98.80;;;;;;5053533;28;20208;-80
2021/01/26 05:34:34;;;;;;;8.70;6.95;;;0.50;98.80;;;;;;5064507;28;20730;-80
2021/01/26 05:37:01;;;;;;;9.27;7.63;;;0.60;99.10;;;;;;5063270;28;21098;-80
2021/01/26 05:39:32;;;;;;;8.40;6.43;;;0.60;98.70;;;;;;5061935;28;20854;-80
2021/01/26 05:41:59;;;;;;;9.52;7.25;;;0.50;98.50;;;;;;5071107;28;20250;-81
2021/01/26 05:44:26;;;;;;;8.45;6.22;;;0.50;98.60;;;;;;5064787;28;20200;-81
2021/01/26 05:46:54;;;;;;;11.32;5.10;;;0.60;98.60;;;;;;5051961;28;20219;-80
2021/01/26 05:49:38;;;;;;;6.78;5.05;;;0.40;98.20;;;;;;5054866;28;20204;-81
2021/01/26 05:52:08;;;;;;;6.72;4.97;;;0.40;98.60;;;;;;5054740;28;20281;-81
2021/01/26 05:54:37;;;;;;;4.35;3.95;;;0.50;98.50;;;;;;5055722;28;20606;-81
2021/01/26 05:57:05;;;;;;;5.60;5.05;;;0.60;98.50;;;;;;5051274;28;20208;-81
2021/01/26 05:59:33;;;;;;;7.63;5.20;;;0.60;98.20;;;;;;5063982;28;20288;-80
2021/01/26 06:02:14;;;;;;;4.90;4.40;;;0.50;98.00;;;;;;5060988;28;20192;-82
2021/01/26 06:04:41;;;;;;;6.13;4.55;;;0.40;98.90;;;;;;5059921;28;20210;-82
2021/01/26 06:07:20;;;;;;;6.53;5.82;;;0.50;98.30;;;;;;5059734;28;20289;-81
2021/01/26 06:09:47;;;;;;;6.07;4.00;;;0.50;98.40;;;;;;5059532;28;20677;-81
2021/01/26 06:12:17;;;;;;;5.47;4.20;;;0.40;98.30;;;;;;5055704;28;20227;-81
2021/01/26 06:14:46;;;;;;;8.32;5.00;;;0.40;98.40;;;;;;5068985;28;20624;-81
2021/01/26 06:17:19;;;;;;;6.20;5.25;;;0.50;98.40;;;;;;5052638;28;20196;-81
2021/01/26 06:20:03;;;;;;;6.88;3.58;;;0.50;98.60;;;;;;5065236;28;20329;-83
2021/01/26 06:22:30;;;;;;;6.25;4.80;;;0.50;98.40;;;;;;5070611;28;20264;-81
2021/01/26 06:24:58;;;;;;;5.05;4.22;;;0.50;98.40;;;;;;5067467;28;20199;-82
2021/01/26 06:27:48;;;;;;;5.20;4.30;;;0.60;98.50;;;;;;5064003;28;20261;-81
2021/01/26 06:30:39;;;;;;;4.90;3.78;;;0.60;98.20;;;;;;5061945;28;20215;-81
2021/01/26 06:33:34;;;;;;;4.30;3.70;;;0.50;97.90;;;;;;5050016;28;20192;-82
2021/01/26 06:36:14;;;;;;;6.00;5.00;;;0.60;98.10;;;;;;5055179;28;20195;-82
2021/01/26 06:39:10;;;;;;;8.57;3.75;;;0.60;98.10;;;;;;5056338;28;20192;-83
2021/01/26 06:41:52;;;;;;;5.43;4.22;;;0.60;98.10;;;;;;5051155;28;20694;-83
2021/01/26 06:44:36;;;;;;;9.48;5.05;;;0.70;97.80;;;;;;5061548;28;20203;-83
2021/01/26 06:47:19;;;;;;;3.70;3.38;;;0.70;98.00;;;;;;5050186;28;20274;-82
2021/01/26 06:49:58;;;;;;;8.85;4.22;;;0.70;97.70;;;;;;5060707;28;20207;-83
2021/01/26 06:52:46;;;;;;;6.50;3.95;;;0.60;97.80;;;;;;5055940;28;20237;-82
2021/01/26 06:55:31;;;;;;;4.82;3.38;;;0.60;98.00;;;;;;5055584;28;20250;-83
2021/01/26 06:58:25;;;;;;;6.72;4.15;;;0.70;98.20;;;;;;5060254;28;20237;-82
2021/01/26 07:01:11;;;;;;;4.82;4.30;;;0.70;98.60;;;;;;5054724;28;20234;-82
2021/01/26 07:04:08;;;;;;;6.60;3.97;;;0.60;98.30;;;;;;5067646;28;20211;-82
2021/01/26 07:07:08;;;;;;;5.20;3.42;;;0.60;98.20;;;;;;5050134;28;20707;-82
2021/01/26 07:09:50;;;;;;;4.57;3.80;;;0.70;98.10;;;;;;5058301;28;20247;-82
2021/01/26 07:12:33;;;;;;;4.63;3.35;;;0.70;98.10;;;;;;5050042;28;20273;-82
2021/01/26 07:15:20;;;;;;;4.80;3.38;;;0.80;98.40;;;;;;5050178;28;20537;-82
2021/01/26 07:18:08;;;;;;;8.23;3.50;;;0.80;98.10;;;;;;5050744;28;20203;-83
2021/01/26 07:20:40;;;;;;;5.35;4.00;;;0.90;98.20;;;;;;5056839;28;20211;-83
2021/01/26 07:23:25;;;;;;;6.03;4.45;;;0.90;98.30;;;;;;5053981;28;20207;-83
2021/01/26 07:26:23;;;;;;;4.80;3.72;;;0.80;98.60;;;;;;5052291;28;20715;-83
2021/01/26 07:29:16;;;;;;;5.88;3.65;;;0.90;99.00;;;;;;5065718;28;20215;-83
2021/01/26 07:31:48;;;;;;;6.25;4.10;;;0.90;99.00;;;;;;5049936;28;20680;-83
2021/01/26 07:34:22;;;;;;;3.63;3.00;;;0.90;98.90;;;;;;5065418;28;20200;-83
2021/01/26 07:36:57;;;;;;;6.32;3.88;;;0.80;98.90;;;;;;5069923;28;20226;-83
2021/01/26 07:39:28;;;;;;;4.13;3.72;;;0.80;99.30;;;;;;5059888;28;20209;-83
2021/01/26 07:42:05;;;;;;;6.07;4.25;;;0.80;99.40;;;;;;5069326;28;20203;-83
2021/01/26 07:44:36;;;;;;;4.88;3.75;;;1.00;99.30;;;;;;5059399;28;20616;-83
2021/01/26 07:47:09;;;;;;;6.97;2.85;;;1.00;98.90;;;;;;5050247;28;20745;-83
2021/01/26 07:49:43;;;;;;;6.93;5.57;;;0.90;98.30;;;;;;5061872;28;20253;-83
2021/01/26 07:52:10;;;;;;;6.03;4.15;;;0.90;98.90;;;;;;5070517;28;20210;-83
2021/01/26 07:54:44;;;;;;;10.60;4.68;;;1.00;98.90;;;;;;5057435;28;20195;-83
2021/01/26 07:57:13;;;;;;;7.30;3.28;;;1.00;98.50;;;;;;5058880;28;20192;-83
2021/01/26 07:59:50;;;;;;;5.75;4.32;;;1.00;98.40;;;;;;5058758;28;20345;-83
2021/01/26 08:02:21;;;;;;;6.20;3.15;;;1.00;98.50;;;;;;5064407;28;20644;-82
2021/01/26 08:04:48;;;;;;;4.20;3.35;;;1.00;98.50;;;;;;5050847;28;20258;-82
2021/01/26 08:07:28;;;;;;;4.45;3.22;;;1.10;98.70;;;;;;5055743;28;20704;-82
2021/01/26 08:09:57;;;;;;;6.45;3.60;;;1.20;98.70;;;;;;5056469;28;20305;-82
2021/01/26 08:12:42;;;;;;;3.17;2.65;;;1.10;98.40;;;;;;5058273;28;20722;-82
2021/01/26 08:15:28;;;;;;;3.85;3.47;;;1.10;98.50;;;;;;5069660;28;20223;-82
2021/01/26 08:17:56;;;;;;;3.88;3.05;;;1.10;98.60;;;;;;5055657;28;20568;-83
2021/01/26 08:20:30;;;;;;;4.18;2.90;;;1.10;98.70;;;;;;5057426;28;20192;-82
2021/01/26 08:22:59;;;;;;;6.40;3.65;;;1.20;98.70;;;;;;5053196;28;20302;-82
2021/01/26 08:25:30;;;;;;;3.83;2.58;;;1.10;98.50;;;;;;5069733;28;20235;-82
2021/01/26 08:28:00;;;;;;;4.97;3.42;;;1.10;98.30;;;;;;5059379;28;20188;-83
2021/01/26 08:31:00;;;;;;;4.45;3.22;;;1.10;98.60;;;;;;5055227;28;20321;-81
2021/01/26 08:33:29;;;;;;;4.20;3.42;;;1.10;98.60;;;;;;5061996;28;20288;-84
2021/01/26 08:36:09;;;;;;;4.75;3.00;;;1.10;98.60;;;;;;5056013;28;20204;-82
2021/01/26 08:38:52;;;;;;;3.72;3.35;;;1.00;98.80;;;;;;5068578;28;20195;-82
2021/01/26 08:41:52;;;;;;;5.40;4.57;;;1.00;98.90;;;;;;5070438;28;20207;-83
2021/01/26 08:44:53;;;;;;;6.82;5.07;;;1.00;99.20;;;;;;5064875;28;20299;-82
2021/01/26 08:47:47;;;;;;;4.22;3.83;;;1.00;99.50;;;;;;5062954;28;20232;-83
2021/01/26 08:50:35;;;;;;;5.32;4.72;;;0.90;99.60;;;;;;5062243;28;20214;-83
2021/01/26 08:53:19;;;;;;;6.60;4.45;;;1.00;99.60;;;;;;5066228;28;20576;-83
2021/01/26 08:55:47;;;;;;;5.45;3.88;;;1.10;99.50;;;;;;5071955;28;20199;-83
2021/01/26 08:58:39;;;;;;;7.40;6.70;;;0.90;99.40;;;;;;5056617;28;20265;-82
2021/01/26 09:01:07;;;;;;;7.10;5.43;;;0.90;99.70;;;;;;5062718;28;20212;-83
2021/01/26 09:03:39;;;;;;;6.18;5.00;;;0.90;99.80;;;;;;5052136;28;20216;-84
2021/01/26 09:06:10;;;;;;;5.78;4.45;;;1.00;99.40;;;;;;5052256;28;20224;-83
2021/01/26 09:08:52;;;;;;;7.10;5.25;;;0.90;99.30;;;;;;5051267;28;20219;-83
2021/01/26 09:11:42;;;;;;;11.32;5.50;;;0.90;99.20;;;;;;5055063;28;20683;-83
2021/01/26 09:14:32;;;;;;;5.32;4.63;;;1.10;98.90;;;;;;5071624;28;20195;-83
2021/01/26 09:17:03;;;;;;;6.05;4.80;;;1.10;98.40;;;;;;5068245;28;20203;-83
2021/01/26 09:19:36;;;;;;;6.75;5.15;;;1.10;97.90;;;;;;5065722;28;20673;-84
2021/01/26 09:22:08;;;;;;;6.75;5.25;;;1.20;97.90;;;;;;5061225;28;20218;-83
2021/01/26 09:24:37;;;;;;;5.60;5.10;;;1.10;97.70;;;;;;5062904;28;20650;-84
2021/01/26 09:27:23;;;;;;;5.18;4.68;;;1.10;97.60;;;;;;5064116;28;20219;-83
2021/01/26 09:30:07;;;;;;;5.05;4.55;;;1.10;97.60;;;;;;5064744;28;20244;-84
2021/01/26 09:32:35;;;;;;;5.78;3.97;;;1.20;97.30;;;;;;5058183;28;20222;-84
2021/01/26 09:35:11;;;;;;;4.88;3.72;;;1.30;97.00;;;;;;5054055;28;20208;-84
2021/01/26 09:37:39;;;;;;;7.18;4.97;;;1.30;96.90;;;;;;5056836;28;20205;-83
2021/01/26 09:40:11;;;;;;;4.57;4.07;;;1.40;96.70;;;;;;5069338;28;20664;-84
2021/01/26 09:42:38;;;;;;;9.45;4.82;;;1.60;96.80;;;;;;5063854;28;20588;-83
2021/01/26 09:45:08;;;;;;;4.10;3.70;;;1.70;96.50;;;;;;5071430;28;20199;-84
2021/01/26 09:47:36;;;;;;;4.60;3.65;;;1.70;95.90;;;;;;5071181;28;20216;-84
2021/01/26 09:50:06;;;;;;;4.80;3.80;;;1.70;95.50;;;;;;5068340;28;20222;-84
2021/01/26 09:52:33;;;;;;;4.80;4.40;;;1.60;95.00;;;;;;5071009;28;20195;-84
2021/01/26 09:55:06;;;;;;;4.53;3.88;;;1.60;95.10;;;;;;5069939;28;20610;-83
2021/01/26 09:57:33;;;;;;;6.85;5.03;;;1.70;95.40;;;;;;5055618;28;20219;-84
2021/01/26 10:00:01;;;;;;;3.92;3.47;;;1.90;95.50;;;;;;5053998;28;20200;-84
2021/01/26 10:02:29;;;;;;;4.85;3.55;;;1.90;95.30;;;;;;5056845;28;20254;-84
2021/01/26 10:04:59;;;;;;;6.10;3.30;;;1.90;95.00;;;;;;5069504;28;20200;-84
2021/01/26 10:07:27;;;;;;;4.25;3.15;;;1.80;94.60;;;;;;5054461;28;20277;-83
2021/01/26 10:10:10;;;;;;;6.00;2.97;;;1.80;94.90;;;;;;5053993;28;20291;-84
2021/01/26 10:12:38;;;;;;;3.75;2.75;;;1.70;95.00;;;;;;5050976;28;20199;-84
2021/01/26 10:15:14;;;;;;;4.88;3.95;;;1.70;95.00;;;;;;5061560;28;20196;-84
2021/01/26 10:17:50;;;;;;;3.30;3.00;;;1.70;95.10;;;;;;5067021;28;20206;-84
2021/01/26 10:20:26;;;;;;;5.53;3.17;;;1.70;94.90;;;;;;5053385;28;20206;-84
2021/01/26 10:23:02;;;;;;;4.10;3.22;;;1.80;94.60;;;;;;5069499;28;20210;-84
2021/01/26 10:25:33;;;;;;;6.75;4.10;;;1.80;94.30;;;;;;5063505;28;20653;-84
2021/01/26 10:28:09;;;;;;;5.10;3.53;;;1.80;94.40;;;;;;5070360;28;20272;-84
2021/01/26 10:30:42;;;;;;;4.10;3.15;;;1.70;94.10;;;;;;5070721;28;20199;-84
2021/01/26 10:33:09;;;;;;;3.10;2.83;;;1.90;93.90;;;;;;5069739;28;20278;-85
2021/01/26 10:35:39;;;;;;;4.45;2.42;;;1.90;93.80;;;;;;5068895;28;20199;-85
2021/01/26 10:38:30;;;;;;;2.60;2.40;;;2.10;93.50;;;;;;5065253;28;20200;-84
2021/01/26 10:41:07;;;;;;;4.15;3.47;;;2.20;92.80;;;;;;5069173;28;20207;-84
2021/01/26 10:43:34;;;;;;;3.05;2.78;;;2.50;93.00;;;;;;5063462;28;20208;-84
2021/01/26 10:46:01;;;;;;;4.05;3.05;;;2.60;92.50;;;;;;5066676;28;20684;-84
2021/01/26 10:48:31;;;;;;;2.80;2.60;;;2.80;92.30;;;;;;5065746;28;20220;-84
2021/01/26 10:51:12;;;;;;;3.55;3.25;;;2.60;91.60;;;;;;5071463;28;20261;-84
2021/01/26 10:53:43;;;;;;;6.72;3.20;;;2.60;91.70;;;;;;5064088;28;20208;-85
2021/01/26 10:56:10;;;;;;;3.10;2.75;;;2.40;91.30;;;;;;5050948;28;20577;-85
2021/01/26 10:58:37;;;;;;;2.85;2.53;;;2.20;91.70;;;;;;5053262;28;20223;-84
2021/01/26 11:01:04;;;;;;;2.67;2.47;;;2.30;92.10;;;;;;5070799;28;20191;-84
2021/01/26 11:03:30;;;;;;;3.50;3.08;;;2.30;92.20;;;;;;5069384;28;20257;-84
2021/01/26 11:05:57;;;;;;;3.63;3.05;;;2.30;92.00;;;;;;5054932;28;20195;-84
2021/01/26 11:08:24;;;;;;;2.88;2.67;;;2.10;92.00;;;;;;5053860;28;20198;-84
2021/01/26 11:10:51;;;;;;;2.25;2.05;;;2.00;92.00;;;;;;5068481;28;20195;-85
2021/01/26 11:13:17;;;;;;;4.00;2.65;;;2.00;92.10;;;;;;5065111;28;20540;-85
2021/01/26 11:15:44;;;;;;;3.33;3.03;;;2.00;92.50;;;;;;5069579;28;20203;-84
2021/01/26 11:18:11;;;;;;;3.60;3.10;;;1.90;92.30;;;;;;5066106;28;20219;-84
2021/01/26 11:20:38;;;;;;;3.33;2.90;;;2.10;92.90;;;;;;5067920;28;20195;-84
2021/01/26 11:23:05;;;;;;;5.18;2.95;;;2.10;92.50;;;;;;5070807;28;20680;-85
2021/01/26 11:25:32;;;;;;;3.33;2.92;;;2.10;92.10;;;;;;5056882;28;20610;-85
2021/01/26 11:27:59;;;;;;;4.03;2.65;;;2.00;92.10;;;;;;5051326;28;20219;-85
2021/01/26 11:30:26;;;;;;;3.00;2.08;;;1.90;91.40;;;;;;5051776;28;20204;-84
2021/01/26 11:32:53;;;;;;;4.30;3.03;;;1.80;91.20;;;;;;5056263;28;20240;-84
2021/01/26 11:35:23;;;;;;;4.40;2.90;;;1.90;91.40;;;;;;5057935;28;20208;-85
2021/01/26 11:37:51;;;;;;;3.35;2.75;;;1.90;90.90;;;;;;5054960;28;20274;-85
2021/01/26 11:40:18;;;;;;;2.50;2.25;;;1.90;91.30;;;;;;5069721;28;20668;-85
2021/01/26 11:42:45;;;;;;;4.05;2.30;;;1.90;91.40;;;;;;5063068;28;20204;-84
2021/01/26 11:45:15;;;;;;;2.92;2.55;;;1.90;91.20;;;;;;5065354;28;20195;-84
2021/01/26 11:47:42;;;;;;;3.95;2.40;;;1.90;91.10;;;;;;5073814;28;20218;-85
2021/01/26 11:50:12;;;;;;;9.43;2.70;;;2.00;91.30;;;;;;5066743;28;20673;-85
2021/01/26 11:52:39;;;;;;;3.75;2.63;;;2.00;90.80;;;;;;5071911;28;20192;-84
2021/01/26 11:55:10;;;;;;;3.05;2.63;;;2.00;90.50;;;;;;5068332;28;20229;-84
2021/01/26 11:57:36;;;;;;;4.05;2.92;;;2.20;90.60;;;;;;5069312;28;20775;-84
2021/01/26 12:00:07;;;;;;;4.20;2.95;;;2.20;89.50;;;;;;5065681;28;20199;-85
2021/01/26 12:02:33;;;;;;;2.83;2.35;;;2.20;89.90;;;;;;5063499;28;20196;-85
2021/01/26 12:05:00;;;;;;;4.53;2.97;;;2.20;89.90;;;;;;5056608;28;20196;-84
2021/01/26 12:07:27;;;;;;;4.30;2.88;;;2.20;90.30;;;;;;5073069;28;20215;-84
2021/01/26 12:09:53;;;;;;;3.65;2.78;;;2.20;89.80;;;;;;5070625;28;20199;-85
2021/01/26 12:12:20;;;;;;;5.82;2.38;;;2.20;89.50;;;;;;5073850;28;20257;-84
2021/01/26 12:14:47;;;;;;;2.83;2.40;;;2.50;90.00;;;;;;5067557;28;20202;-84
2021/01/26 12:17:14;;;;;;;3.08;2.22;;;2.60;87.50;;;;;;5073475;28;20206;-84
2021/01/26 12:19:42;;;;;;;2.25;2.15;;;2.60;87.10;;;;;;5065675;28;20200;-84
2021/01/26 12:22:08;;;;;;;6.35;2.22;;;2.50;86.70;;;;;;5056458;28;20264;-84
2021/01/26 12:24:35;;;;;;;2.60;2.40;;;2.50;87.00;;;;;;5056784;28;20204;-85
2021/01/26 12:27:01;;;;;;;4.05;2.28;;;2.60;87.40;;;;;;5068006;28;20230;-85
2021/01/26 12:29:28;;;;;;;3.13;2.20;;;2.70;86.90;;;;;;5068575;28;20640;-84
2021/01/26 12:31:54;;;;;;;6.80;2.85;;;2.70;85.60;;;;;;5055285;28;20208;-84
2021/01/26 12:34:22;;;;;;;2.88;2.38;;;2.70;86.90;;;;;;5063282;28;20208;-85
2021/01/26 12:36:50;;;;;;;5.28;2.55;;;2.70;86.10;;;;;;5057091;28;20192;-84
2021/01/26 12:39:16;;;;;;;3.17;2.85;;;2.70;86.00;;;;;;5062967;28;20211;-85
2021/01/26 12:41:43;;;;;;;2.65;2.33;;;2.70;86.80;;;;;;5058571;28;20219;-85
2021/01/26 12:44:10;;;;;;;3.30;2.65;;;2.70;85.50;;;;;;5058633;28;20219;-84
2021/01/26 12:46:38;;;;;;;6.70;2.60;;;2.80;85.30;;;;;;5074546;28;20702;-84
2021/01/26 12:49:04;;;;;;;2.85;2.33;;;2.90;86.50;;;;;;5053744;28;20196;-85
2021/01/26 12:51:32;;;;;;;2.15;2.00;;;3.00;86.00;;;;;;5054498;28;20220;-85
2021/01/26 12:53:59;;;;;;;3.50;3.10;;;3.00;86.40;;;;;;5054847;28;20204;-85
2021/01/26 12:56:25;;;;;;;2.65;2.30;;;3.10;86.80;;;;;;5053313;28;20204;-85
2021/01/26 12:58:52;;;;;;;1.83;1.73;;;3.00;84.80;;;;;;5057006;28;20203;-85
2021/01/26 13:01:18;;;;;;;4.05;2.47;;;2.80;85.80;;;;;;5074779;28;20203;-84
2021/01/26 13:03:45;;;;;;;3.75;2.13;;;2.70;85.80;;;;;;5068417;28;20298;-84
2021/01/26 13:06:11;;;;;;;2.75;2.55;;;2.60;85.90;;;;;;5069624;28;20710;-84
2021/01/26 13:08:39;;;;;;;3.80;2.45;;;2.70;86.60;;;;;;5070082;28;20203;-84
2021/01/26 13:11:05;;;;;;;4.95;2.05;;;2.60;85.20;;;;;;5074781;28;20203;-84
2021/01/26 13:13:31;;;;;;;3.22;2.45;;;2.70;85.00;;;;;;5070887;28;20211;-85
2021/01/26 13:15:58;;;;;;;11.45;3.00;;;2.90;85.60;;;;;;5073725;28;20211;-85
2021/01/26 13:18:24;;;;;;;2.22;1.95;;;2.90;84.70;;;;;;5069465;28;20610;-84
2021/01/26 13:20:51;;;;;;;2.55;2.10;;;3.00;86.10;;;;;;5073831;28;20494;-84
2021/01/26 13:23:19;;;;;;;2.60;2.40;;;3.20;86.30;;;;;;5064747;28;20568;-85
2021/01/26 13:25:46;;;;;;;4.47;2.40;;;3.00;84.50;;;;;;5070340;28;20597;-84